Time;durP1;ratioP1;P1;durP2;ratioP2;P2;SDS_P1;SDS_P2;PMS_P1;PMS_P2;Temp;Humidity;BMP_temperature;BMP_pressure;BME280_temperature;BME280_humidity;BME280_pressure;Samples;Min_cycle;Max_cycle;Signal;HPM_P1;HPM_P2
2023/03/24 00:01:03;;;;;;;8.10;5.25;;;14.00;99.90;;;;;;5093755;27;20231;-65
2023/03/24 00:03:51;;;;;;;9.00;5.55;;;14.00;99.90;;;;;;5079424;28;20219;-63
2023/03/24 00:06:42;;;;;;;8.40;5.75;;;14.00;99.90;;;;;;5071584;28;20640;-65
2023/03/24 00:09:31;;;;;;;9.98;5.90;;;13.90;99.90;;;;;;5073683;28;20219;-66
2023/03/24 00:12:20;;;;;;;8.68;5.72;;;13.90;99.90;;;;;;5076635;28;20228;-63
2023/03/24 00:15:13;;;;;;;8.45;5.57;;;13.90;99.90;;;;;;5071341;28;20240;-63
2023/03/24 00:18:02;;;;;;;9.77;6.18;;;13.90;99.90;;;;;;5074568;28;20231;-64
2023/03/24 00:20:57;;;;;;;8.48;6.13;;;14.00;99.90;;;;;;5092421;28;20242;-65
2023/03/24 00:23:46;;;;;;;11.48;7.40;;;14.00;99.90;;;;;;5093985;28;20219;-63
2023/03/24 00:26:36;;;;;;;9.35;6.68;;;14.00;99.90;;;;;;5077700;28;20261;-66
2023/03/24 00:29:25;;;;;;;9.93;7.30;;;14.00;99.90;;;;;;5075152;28;20312;-65
2023/03/24 00:32:16;;;;;;;12.07;7.18;;;13.90;99.90;;;;;;5078270;28;20232;-65
2023/03/24 00:35:07;;;;;;;9.93;7.55;;;13.80;99.90;;;;;;5077926;28;20227;-66
2023/03/24 00:37:57;;;;;;;9.90;6.80;;;13.80;99.90;;;;;;5081595;28;20298;-65
2023/03/24 00:40:47;;;;;;;10.05;6.20;;;13.70;99.90;;;;;;5079401;28;20227;-65
2023/03/24 00:43:36;;;;;;;9.57;6.28;;;13.70;99.90;;;;;;5076812;28;20270;-66
2023/03/24 00:46:28;;;;;;;9.95;5.90;;;13.80;99.90;;;;;;5079866;28;21022;-66
2023/03/24 00:49:24;;;;;;;8.88;6.03;;;13.60;99.90;;;;;;5084403;28;20640;-66
2023/03/24 00:52:16;;;;;;;8.68;6.25;;;13.70;99.90;;;;;;5078782;28;20212;-66
2023/03/24 00:55:07;;;;;;;9.32;5.95;;;13.60;99.90;;;;;;5087795;28;20246;-65
2023/03/24 00:57:56;;;;;;;9.15;5.82;;;13.60;99.90;;;;;;5080868;28;20718;-65
2023/03/24 01:00:47;;;;;;;12.30;6.22;;;13.70;99.90;;;;;;5081075;28;20566;-68
2023/03/24 01:03:47;;;;;;;8.40;5.95;;;13.60;99.90;;;;;;5079572;28;20219;-67
2023/03/24 01:06:38;;;;;;;7.93;5.72;;;13.60;99.90;;;;;;5095354;28;20224;-68
2023/03/24 01:09:27;;;;;;;11.40;5.85;;;13.50;99.90;;;;;;5080709;28;20215;-69
2023/03/24 01:12:17;;;;;;;9.27;5.88;;;13.50;99.90;;;;;;5081936;28;20230;-68
2023/03/24 01:15:14;;;;;;;8.23;5.75;;;13.40;99.90;;;;;;5106606;27;20310;-66
2023/03/24 01:18:03;;;;;;;11.65;6.40;;;13.40;99.90;;;;;;5090888;28;20243;-67
2023/03/24 01:20:54;;;;;;;8.40;5.90;;;13.40;99.90;;;;;;5073858;28;20341;-65
2023/03/24 01:23:44;;;;;;;8.48;5.75;;;13.30;99.90;;;;;;5076802;28;20224;-67
2023/03/24 01:26:33;;;;;;;10.48;5.78;;;13.30;99.90;;;;;;5079998;28;20236;-67
2023/03/24 01:29:22;;;;;;;11.07;6.20;;;13.30;99.90;;;;;;5078668;28;20835;-66
2023/03/24 01:32:11;;;;;;;10.05;6.22;;;13.30;99.90;;;;;;5076982;28;20289;-66
2023/03/24 01:35:00;;;;;;;9.93;5.78;;;13.40;99.90;;;;;;5093388;28;20239;-66
2023/03/24 01:37:49;;;;;;;10.55;5.57;;;13.30;99.90;;;;;;5071112;28;20235;-66
2023/03/24 01:40:42;;;;;;;8.85;5.90;;;13.30;99.90;;;;;;5090496;28;20311;-67
2023/03/24 01:43:33;;;;;;;8.77;5.63;;;13.20;99.90;;;;;;5080271;28;20284;-65
2023/03/24 01:46:25;;;;;;;7.45;5.43;;;13.20;99.90;;;;;;5090745;28;20741;-67
2023/03/24 01:49:14;;;;;;;10.48;5.40;;;13.20;99.90;;;;;;5101753;27;20497;-66
2023/03/24 01:52:07;;;;;;;7.75;5.75;;;13.00;99.90;;;;;;5077571;28;20748;-67
2023/03/24 01:55:00;;;;;;;9.52;5.93;;;13.10;99.90;;;;;;5075483;28;20758;-65
2023/03/24 01:57:53;;;;;;;7.53;5.22;;;13.10;99.90;;;;;;5086640;28;20227;-65
2023/03/24 02:00:43;;;;;;;8.93;5.60;;;13.10;99.90;;;;;;5093627;27;20676;-66
2023/03/24 02:03:56;;;;;;;7.88;5.57;;;13.10;99.90;;;;;;5076457;28;20551;-67
2023/03/24 02:06:47;;;;;;;8.43;5.25;;;12.90;99.90;;;;;;5080141;28;20231;-68
2023/03/24 02:09:36;;;;;;;10.80;5.97;;;12.90;99.90;;;;;;5077810;28;20231;-68
2023/03/24 02:12:25;;;;;;;8.10;5.53;;;12.90;99.90;;;;;;5090368;27;20215;-66
2023/03/24 02:15:19;;;;;;;8.27;5.30;;;12.80;99.90;;;;;;5105598;27;20223;-67
2023/03/24 02:18:19;;;;;;;7.00;5.20;;;12.90;99.90;;;;;;5087474;27;20306;-67
2023/03/24 02:21:53;;;;;;;10.18;5.78;;;12.80;99.90;;;;;;5092584;28;20326;-64
2023/03/24 02:25:25;;;;;;;8.35;5.28;;;12.80;99.90;;;;;;5031828;28;20316;-64
2023/03/24 02:28:25;;;;;;;8.00;5.50;;;12.80;99.90;;;;;;5015873;28;20968;-64
2023/03/24 02:31:43;;;;;;;7.88;5.18;;;12.70;99.90;;;;;;4997248;28;21048;-65
2023/03/24 02:35:10;;;;;;;7.53;5.22;;;12.70;99.90;;;;;;5079630;28;20223;-64
2023/03/24 02:38:29;;;;;;;9.40;5.70;;;12.70;99.90;;;;;;5074575;28;20229;-65
2023/03/24 02:41:25;;;;;;;7.28;5.22;;;12.70;99.90;;;;;;5072052;28;20239;-65
2023/03/24 02:44:21;;;;;;;7.53;5.32;;;12.60;99.90;;;;;;5074344;28;20219;-67
2023/03/24 02:47:16;;;;;;;8.23;5.50;;;12.60;99.90;;;;;;5072123;28;20705;-67
2023/03/24 02:50:15;;;;;;;7.88;5.43;;;12.70;99.90;;;;;;5077301;28;20226;-69
2023/03/24 02:53:11;;;;;;;7.72;5.38;;;12.70;99.90;;;;;;5079153;28;20226;-64
2023/03/24 02:56:20;;;;;;;7.20;5.18;;;12.70;99.90;;;;;;5092367;28;20309;-64
2023/03/24 02:59:20;;;;;;;8.55;5.20;;;12.70;99.90;;;;;;5091671;28;20340;-64
2023/03/24 03:02:19;;;;;;;7.90;5.15;;;12.70;99.90;;;;;;5083147;28;20314;-65
2023/03/24 03:05:21;;;;;;;8.02;5.43;;;12.60;99.90;;;;;;5079188;28;20875;-66
2023/03/24 03:08:16;;;;;;;7.95;5.22;;;12.50;99.90;;;;;;5081424;28;20219;-65
2023/03/24 03:11:07;;;;;;;9.82;5.18;;;12.50;99.90;;;;;;5106185;28;20292;-67
2023/03/24 03:14:01;;;;;;;8.27;5.40;;;12.50;99.90;;;;;;5079658;28;20615;-64
2023/03/24 03:16:58;;;;;;;9.85;5.85;;;12.40;99.90;;;;;;5080573;28;20215;-65
2023/03/24 03:19:52;;;;;;;7.72;4.88;;;12.40;99.90;;;;;;5093315;28;20227;-66
2023/03/24 03:22:44;;;;;;;7.53;5.20;;;12.30;99.90;;;;;;5065545;28;20721;-66
2023/03/24 03:25:37;;;;;;;7.05;5.13;;;12.30;99.90;;;;;;5074048;28;20671;-66
2023/03/24 03:28:28;;;;;;;9.27;5.72;;;12.20;99.90;;;;;;5081906;28;20761;-66
2023/03/24 03:31:22;;;;;;;8.48;5.20;;;12.20;99.90;;;;;;5075065;28;20278;-65
2023/03/24 03:34:20;;;;;;;7.38;5.05;;;12.20;99.90;;;;;;5092057;28;20306;-66
2023/03/24 03:37:19;;;;;;;7.78;5.18;;;12.20;99.90;;;;;;5088399;28;20219;-64
2023/03/24 03:40:11;;;;;;;7.45;5.20;;;12.20;99.90;;;;;;5077379;28;21002;-64
2023/03/24 03:43:05;;;;;;;7.03;5.20;;;12.20;99.90;;;;;;5075913;28;20339;-63
2023/03/24 03:45:54;;;;;;;8.60;5.30;;;12.10;99.90;;;;;;5091702;28;20223;-63
2023/03/24 03:48:49;;;;;;;10.82;6.07;;;12.10;99.90;;;;;;5083290;28;20223;-64
2023/03/24 03:51:41;;;;;;;8.27;5.38;;;12.10;99.90;;;;;;5081460;28;20220;-64
2023/03/24 03:54:32;;;;;;;9.20;5.70;;;12.10;99.90;;;;;;5080209;28;20219;-65
2023/03/24 03:57:21;;;;;;;8.25;5.32;;;12.10;99.90;;;;;;5079184;28;21039;-64
2023/03/24 04:00:23;;;;;;;6.95;5.40;;;12.10;99.90;;;;;;5076486;28;20364;-64
2023/03/24 04:03:50;;;;;;;8.98;5.38;;;12.10;99.90;;;;;;5078034;28;20390;-65
2023/03/24 04:06:52;;;;;;;7.35;5.53;;;12.10;99.90;;;;;;5080870;28;20223;-67
2023/03/24 04:09:52;;;;;;;10.73;6.28;;;12.00;99.90;;;;;;5090224;28;20650;-65
2023/03/24 04:12:56;;;;;;;7.68;5.90;;;11.90;99.90;;;;;;5076236;28;20230;-66
2023/03/24 04:16:36;;;;;;;9.45;5.57;;;12.00;99.90;;;;;;5083338;28;20216;-65
2023/03/24 04:19:43;;;;;;;10.60;5.80;;;12.00;99.90;;;;;;5071765;28;20227;-66
2023/03/24 04:22:43;;;;;;;13.98;7.55;;;12.00;99.90;;;;;;5080162;28;20234;-65
2023/03/24 04:25:55;;;;;;;9.30;6.03;;;12.00;99.90;;;;;;5081024;28;20800;-65
2023/03/24 04:28:56;;;;;;;9.63;5.97;;;12.10;99.90;;;;;;5080639;28;20667;-64
2023/03/24 04:31:52;;;;;;;10.00;6.72;;;12.10;99.90;;;;;;5086440;28;20322;-64
2023/03/24 04:34:49;;;;;;;10.98;5.70;;;12.00;99.90;;;;;;5074223;28;20227;-66
2023/03/24 04:38:01;;;;;;;8.35;5.78;;;12.00;99.90;;;;;;5079450;28;20774;-65
2023/03/24 04:40:55;;;;;;;9.98;6.18;;;12.00;99.90;;;;;;5079566;28;20227;-66
2023/03/24 04:43:46;;;;;;;11.52;5.88;;;12.00;99.90;;;;;;5080531;28;20238;-65
2023/03/24 04:46:35;;;;;;;9.73;6.25;;;11.90;99.90;;;;;;5071047;28;20758;-66
2023/03/24 04:49:31;;;;;;;7.88;5.97;;;12.00;99.90;;;;;;5084912;28;20314;-65
2023/03/24 04:52:26;;;;;;;9.10;6.53;;;12.00;99.90;;;;;;5097921;27;20215;-65
2023/03/24 04:55:44;;;;;;;9.77;6.15;;;12.00;99.90;;;;;;5080504;28;20305;-64
2023/03/24 04:58:34;;;;;;;10.13;7.28;;;12.00;99.90;;;;;;5091269;28;20208;-66
2023/03/24 05:01:36;;;;;;;10.75;7.20;;;12.10;99.90;;;;;;5092863;27;20737;-66
2023/03/24 05:04:43;;;;;;;15.48;7.13;;;12.00;99.90;;;;;;5080363;28;20635;-66
2023/03/24 05:07:37;;;;;;;13.82;7.50;;;12.00;99.90;;;;;;5070723;28;20249;-66
2023/03/24 05:10:30;;;;;;;10.65;7.00;;;12.00;99.90;;;;;;5094234;27;20694;-65
2023/03/24 05:13:21;;;;;;;15.07;7.47;;;12.00;99.90;;;;;;5078573;28;20216;-63
2023/03/24 05:16:16;;;;;;;11.65;7.68;;;12.00;99.90;;;;;;5080300;28;20294;-65
2023/03/24 05:19:13;;;;;;;11.45;7.90;;;12.10;99.90;;;;;;5073441;28;20924;-65
2023/03/24 05:22:02;;;;;;;14.63;8.68;;;12.10;99.90;;;;;;5079128;28;20235;-65
2023/03/24 05:24:51;;;;;;;13.13;9.10;;;12.10;99.90;;;;;;5078849;28;20937;-66
2023/03/24 05:27:40;;;;;;;14.30;8.63;;;12.10;99.90;;;;;;5091993;28;20247;-65
2023/03/24 05:30:40;;;;;;;13.57;8.75;;;12.10;99.90;;;;;;5105987;27;20239;-66
2023/03/24 05:33:39;;;;;;;12.93;8.55;;;12.20;99.90;;;;;;5091718;28;20215;-65
2023/03/24 05:36:31;;;;;;;12.70;9.25;;;12.20;99.90;;;;;;5094673;27;20232;-66
2023/03/24 05:39:23;;;;;;;14.80;9.50;;;12.30;99.90;;;;;;5071858;28;20247;-67
2023/03/24 05:42:26;;;;;;;16.65;10.15;;;12.30;99.90;;;;;;5081772;28;20234;-66
2023/03/24 05:45:15;;;;;;;14.05;9.43;;;12.30;99.90;;;;;;5103272;27;20219;-67
2023/03/24 05:48:06;;;;;;;18.35;11.13;;;12.40;99.90;;;;;;5073532;28;20227;-65
2023/03/24 05:51:12;;;;;;;17.38;10.15;;;12.40;99.90;;;;;;5081819;28;20241;-64
2023/03/24 05:54:04;;;;;;;15.60;10.15;;;12.40;99.90;;;;;;5090151;28;20243;-64
2023/03/24 05:56:57;;;;;;;14.25;10.23;;;12.50;99.90;;;;;;5079139;28;20345;-64
2023/03/24 06:00:06;;;;;;;16.38;10.88;;;12.50;99.90;;;;;;5077156;28;20310;-67
2023/03/24 06:03:17;;;;;;;17.05;11.07;;;12.60;99.90;;;;;;5090467;28;20234;-65
2023/03/24 06:06:18;;;;;;;17.73;11.40;;;12.60;99.90;;;;;;5077222;28;20211;-64
2023/03/24 06:09:07;;;;;;;16.13;10.80;;;12.60;99.90;;;;;;5076800;28;20219;-65
2023/03/24 06:11:56;;;;;;;15.05;10.60;;;12.70;99.90;;;;;;5091898;28;20939;-63
2023/03/24 06:14:46;;;;;;;18.65;11.48;;;12.60;99.90;;;;;;5081114;27;20211;-63
2023/03/24 06:17:36;;;;;;;17.08;11.05;;;12.70;99.90;;;;;;5087948;27;20729;-64
2023/03/24 06:20:37;;;;;;;15.65;10.25;;;12.80;99.90;;;;;;5092773;28;20768;-64
2023/03/24 06:23:28;;;;;;;15.93;10.73;;;12.80;99.90;;;;;;5081104;28;20305;-65
2023/03/24 06:26:29;;;;;;;18.67;11.23;;;12.80;99.90;;;;;;5073753;28;20230;-64
2023/03/24 06:29:20;;;;;;;14.50;10.43;;;12.90;99.90;;;;;;5073245;28;20223;-66
2023/03/24 06:32:09;;;;;;;18.77;10.77;;;12.90;99.90;;;;;;5071776;28;20216;-66
2023/03/24 06:35:02;;;;;;;16.92;11.15;;;13.00;99.90;;;;;;5072002;28;20223;-62
2023/03/24 06:38:05;;;;;;;21.30;11.40;;;13.00;99.90;;;;;;5071610;27;20277;-63
2023/03/24 06:40:59;;;;;;;15.73;10.48;;;12.90;99.90;;;;;;5088015;28;20765;-62
2023/03/24 06:43:48;;;;;;;16.23;10.85;;;13.00;99.90;;;;;;5073148;28;20717;-63
2023/03/24 06:46:37;;;;;;;18.65;10.43;;;13.10;99.90;;;;;;5090821;28;20219;-66
2023/03/24 06:49:26;;;;;;;16.27;10.63;;;13.10;99.90;;;;;;5085653;28;20215;-62
2023/03/24 06:52:15;;;;;;;21.40;10.68;;;13.10;99.90;;;;;;5073576;28;20218;-62
2023/03/24 06:55:07;;;;;;;19.17;10.75;;;13.10;99.90;;;;;;5076470;28;20709;-63
2023/03/24 06:57:55;;;;;;;18.40;10.18;;;13.20;99.90;;;;;;5077876;28;20306;-62
2023/03/24 07:00:58;;;;;;;16.73;9.63;;;13.10;99.90;;;;;;5094606;27;20214;-61
2023/03/24 07:04:00;;;;;;;18.25;10.65;;;13.20;99.90;;;;;;5069354;28;20220;-62
2023/03/24 07:06:58;;;;;;;14.48;9.77;;;13.20;99.90;;;;;;5079312;28;20216;-62
2023/03/24 07:10:18;;;;;;;14.98;10.45;;;13.30;99.90;;;;;;5082625;28;20215;-61
2023/03/24 07:13:07;;;;;;;19.58;10.63;;;13.30;99.90;;;;;;5076510;28;20216;-61
2023/03/24 07:15:57;;;;;;;16.27;9.93;;;13.30;99.90;;;;;;5075071;28;20873;-66
2023/03/24 07:18:49;;;;;;;20.17;10.43;;;13.40;99.90;;;;;;5077762;28;20299;-65
2023/03/24 07:21:38;;;;;;;18.48;10.73;;;13.40;99.90;;;;;;5085781;28;21180;-65
2023/03/24 07:24:27;;;;;;;17.50;9.48;;;13.40;99.90;;;;;;5084576;28;20224;-65
2023/03/24 07:27:31;;;;;;;17.48;9.85;;;13.40;99.90;;;;;;5079528;28;20306;-64
2023/03/24 07:30:20;;;;;;;23.33;10.10;;;13.40;99.90;;;;;;5089820;28;20262;-65
2023/03/24 07:33:23;;;;;;;21.95;9.38;;;13.30;99.90;;;;;;5073625;28;20219;-63
2023/03/24 07:36:12;;;;;;;18.63;9.57;;;13.30;99.90;;;;;;5073147;28;20228;-66
2023/03/24 07:39:03;;;;;;;13.95;8.80;;;13.40;99.90;;;;;;5082149;28;20224;-70
2023/03/24 07:41:55;;;;;;;15.25;9.65;;;13.50;99.90;;;;;;5074721;28;20235;-68
2023/03/24 07:44:55;;;;;;;18.67;9.60;;;13.50;99.90;;;;;;5076553;28;20239;-69
2023/03/24 07:47:46;;;;;;;21.73;10.25;;;13.50;99.90;;;;;;5087350;28;20277;-69
2023/03/24 07:50:34;;;;;;;15.63;9.48;;;13.50;99.90;;;;;;5086480;28;20610;-72
2023/03/24 07:53:31;;;;;;;16.23;9.93;;;13.50;99.90;;;;;;5073886;28;20697;-68
2023/03/24 07:56:20;;;;;;;16.08;9.60;;;13.50;99.90;;;;;;5087621;27;20231;-67
2023/03/24 07:59:14;;;;;;;14.30;9.30;;;13.50;99.90;;;;;;5089283;28;20236;-68
2023/03/24 08:02:17;;;;;;;14.38;9.43;;;13.50;99.90;;;;;;5064024;28;20356;-72
2023/03/24 08:05:18;;;;;;;11.98;8.90;;;13.50;99.90;;;;;;5087384;28;20782;-68
2023/03/24 08:08:32;;;;;;;15.63;9.38;;;13.50;99.90;;;;;;5076042;28;20227;-67
2023/03/24 08:11:21;;;;;;;16.00;9.60;;;13.40;99.90;;;;;;5076588;28;20228;-67
2023/03/24 08:14:10;;;;;;;16.80;10.27;;;13.40;99.90;;;;;;5074974;28;20223;-67
2023/03/24 08:16:59;;;;;;;20.58;10.55;;;13.40;99.90;;;;;;5079439;28;20739;-68
2023/03/24 08:19:49;;;;;;;15.15;9.45;;;13.30;99.90;;;;;;5078770;28;20223;-66
2023/03/24 08:22:53;;;;;;;15.88;10.13;;;13.40;99.90;;;;;;5075228;28;20215;-65
2023/03/24 08:25:42;;;;;;;18.27;10.32;;;13.50;99.90;;;;;;5070961;28;20646;-67
2023/03/24 08:28:31;;;;;;;69.40;47.97;;;13.60;99.90;;;;;;5069342;28;20238;-67
2023/03/24 08:31:20;;;;;;;15.88;10.00;;;13.70;99.90;;;;;;5074224;28;20230;-67
2023/03/24 08:34:11;;;;;;;14.98;9.45;;;13.70;99.90;;;;;;5075172;28;20547;-67
2023/03/24 08:37:01;;;;;;;15.88;9.70;;;13.80;99.90;;;;;;5071817;28;20224;-66
2023/03/24 08:39:50;;;;;;;21.25;10.50;;;13.80;99.90;;;;;;5074708;28;20224;-64
2023/03/24 08:42:40;;;;;;;18.38;10.55;;;13.80;99.90;;;;;;5085204;28;21120;-67
2023/03/24 08:45:31;;;;;;;16.67;9.82;;;13.90;99.90;;;;;;5082475;28;20330;-69
2023/03/24 08:48:21;;;;;;;16.48;10.07;;;13.90;99.90;;;;;;5090431;28;20306;-66
2023/03/24 08:51:11;;;;;;;14.70;9.15;;;13.90;99.90;;;;;;5076662;28;20231;-67
2023/03/24 08:54:02;;;;;;;12.52;8.80;;;13.90;99.90;;;;;;5071015;28;20230;-66
2023/03/24 08:56:51;;;;;;;14.65;9.02;;;13.80;99.90;;;;;;5077453;28;20219;-66
2023/03/24 08:59:40;;;;;;;12.30;8.45;;;13.70;99.90;;;;;;5068883;28;21021;-66
2023/03/24 09:02:29;;;;;;;16.98;9.75;;;13.70;99.90;;;;;;5087623;28;20721;-66
2023/03/24 09:05:18;;;;;;;12.95;8.98;;;13.90;99.90;;;;;;5079541;28;20227;-67
2023/03/24 09:08:25;;;;;;;15.63;8.70;;;14.00;99.90;;;;;;5076657;28;20255;-68
2023/03/24 09:11:18;;;;;;;13.05;9.55;;;14.10;99.90;;;;;;5080867;28;20250;-67
2023/03/24 09:14:06;;;;;;;16.13;9.65;;;14.30;99.90;;;;;;5077053;28;20321;-68
2023/03/24 09:16:55;;;;;;;13.32;9.10;;;14.50;99.90;;;;;;5073860;28;20231;-69
2023/03/24 09:19:46;;;;;;;15.52;9.55;;;14.80;99.90;;;;;;5073990;28;20235;-68
2023/03/24 09:22:37;;;;;;;15.73;9.60;;;14.90;99.90;;;;;;5091823;27;20240;-69
2023/03/24 09:25:25;;;;;;;13.57;9.15;;;15.20;99.90;;;;;;5075978;28;20721;-67
2023/03/24 09:28:16;;;;;;;16.52;9.57;;;15.40;99.90;;;;;;5080404;28;20224;-67
2023/03/24 09:31:06;;;;;;;13.23;9.25;;;15.60;99.90;;;;;;5077370;28;20285;-68
2023/03/24 09:33:55;;;;;;;13.05;9.32;;;15.70;99.90;;;;;;5073939;28;20227;-66
2023/03/24 09:36:43;;;;;;;12.57;8.15;;;15.60;99.90;;;;;;5076725;28;20952;-68
2023/03/24 09:39:39;;;;;;;13.40;8.60;;;15.80;99.90;;;;;;5089310;27;20662;-68
2023/03/24 09:42:32;;;;;;;13.98;8.48;;;15.80;99.90;;;;;;5080234;28;20250;-67
2023/03/24 09:45:24;;;;;;;12.70;9.45;;;16.00;99.90;;;;;;5084248;28;20958;-67
2023/03/24 09:48:19;;;;;;;11.75;8.90;;;16.20;99.90;;;;;;5074708;28;20235;-69
2023/03/24 09:51:13;;;;;;;11.63;8.43;;;16.40;99.90;;;;;;5076688;28;20634;-68
2023/03/24 09:54:12;;;;;;;13.68;8.30;;;16.50;99.90;;;;;;5078452;28;20321;-67
2023/03/24 09:57:01;;;;;;;30.70;9.80;;;16.40;99.90;;;;;;5084030;28;20228;-68
2023/03/24 09:59:50;;;;;;;13.75;9.18;;;16.40;99.90;;;;;;5074908;28;20711;-68
2023/03/24 10:02:41;;;;;;;10.60;8.05;;;16.50;99.90;;;;;;5090018;28;20222;-69
2023/03/24 10:05:35;;;;;;;12.00;8.00;;;16.50;99.90;;;;;;5075502;28;20704;-68
2023/03/24 10:08:29;;;;;;;10.80;8.43;;;16.50;99.90;;;;;;5076229;28;20218;-67
2023/03/24 10:11:26;;;;;;;10.80;8.15;;;16.50;99.90;;;;;;5089958;28;20234;-68
2023/03/24 10:14:27;;;;;;;9.60;7.50;;;16.60;99.90;;;;;;5077149;28;20239;-71
2023/03/24 10:18:40;;;;;;;10.65;7.50;;;16.40;99.90;;;;;;5041578;27;21123;-77
2023/03/24 10:21:32;;;;;;;13.95;8.93;;;16.40;99.90;;;;;;5000312;28;20288;-76
2023/03/24 10:24:29;;;;;;;12.70;9.10;;;16.40;99.90;;;;;;5030246;28;20224;-76
2023/03/24 10:27:25;;;;;;;12.65;7.95;;;16.40;99.90;;;;;;5033504;28;20225;-74
2023/03/24 10:30:17;;;;;;;10.50;7.97;;;16.30;99.90;;;;;;5032149;28;20227;-74
2023/03/24 10:33:06;;;;;;;11.45;8.05;;;16.20;99.90;;;;;;5034279;28;20312;-74
2023/03/24 10:36:01;;;;;;;10.93;7.82;;;16.10;99.90;;;;;;5036997;28;20231;-75
2023/03/24 10:38:50;;;;;;;12.63;7.55;;;16.10;99.90;;;;;;5032717;28;20229;-75
2023/03/24 10:41:41;;;;;;;17.27;8.57;;;16.20;99.90;;;;;;5032765;28;20229;-75
2023/03/24 10:44:30;;;;;;;12.45;8.23;;;16.20;99.90;;;;;;5048838;28;20297;-75
2023/03/24 10:47:24;;;;;;;12.10;8.07;;;16.20;99.90;;;;;;5031645;28;20239;-75
2023/03/24 10:50:13;;;;;;;12.15;8.68;;;16.20;99.90;;;;;;5033586;28;20460;-75
2023/03/24 10:53:16;;;;;;;10.27;7.60;;;16.30;99.90;;;;;;5049292;28;20341;-74
2023/03/24 10:56:06;;;;;;;13.93;8.35;;;16.30;99.90;;;;;;5025922;28;20224;-76
2023/03/24 10:58:55;;;;;;;12.73;8.95;;;16.30;99.90;;;;;;5031816;28;20440;-75
2023/03/24 11:01:44;;;;;;;11.48;7.78;;;16.30;99.90;;;;;;5025806;28;20224;-74
2023/03/24 11:04:33;;;;;;;12.88;8.63;;;16.30;99.90;;;;;;5033112;28;20244;-72
2023/03/24 11:07:23;;;;;;;14.55;9.23;;;16.30;99.90;;;;;;5023032;28;20445;-75
2023/03/24 11:10:25;;;;;;;9.85;7.93;;;16.40;99.90;;;;;;5038678;28;20635;-73
2023/03/24 11:13:18;;;;;;;12.25;7.93;;;16.40;99.90;;;;;;5033907;28;20239;-74
2023/03/24 11:16:13;;;;;;;11.77;8.70;;;16.30;99.90;;;;;;5036877;28;20225;-77
2023/03/24 11:19:07;;;;;;;10.00;8.05;;;16.30;99.90;;;;;;5033335;28;20947;-75
2023/03/24 11:22:02;;;;;;;12.32;8.43;;;16.30;99.90;;;;;;5044093;28;20358;-73
2023/03/24 11:24:55;;;;;;;13.35;7.93;;;16.30;99.90;;;;;;5047310;28;20224;-73
2023/03/24 11:27:46;;;;;;;14.75;8.30;;;16.40;99.90;;;;;;5029734;28;20225;-73
2023/03/24 11:30:45;;;;;;;12.90;8.20;;;16.40;99.90;;;;;;5019381;28;20234;-73
2023/03/24 11:33:42;;;;;;;13.50;8.10;;;16.40;99.90;;;;;;5021213;28;20320;-75
2023/03/24 11:36:48;;;;;;;13.82;8.35;;;16.50;99.90;;;;;;5018387;28;20221;-74
2023/03/24 11:39:37;;;;;;;12.63;7.93;;;16.50;99.90;;;;;;5017542;28;20646;-74
2023/03/24 11:42:27;;;;;;;12.48;8.10;;;16.50;99.90;;;;;;5018650;28;20293;-75
2023/03/24 11:45:38;;;;;;;11.55;7.63;;;16.50;99.90;;;;;;5030463;28;20686;-74
2023/03/24 11:48:32;;;;;;;12.38;7.93;;;16.50;99.90;;;;;;5032473;28;20348;-75
2023/03/24 11:51:28;;;;;;;14.18;8.52;;;16.50;99.90;;;;;;5030695;28;20225;-72
2023/03/24 11:54:20;;;;;;;15.40;8.57;;;16.50;99.90;;;;;;5023832;28;20690;-73
2023/03/24 11:57:13;;;;;;;13.07;8.45;;;16.50;99.90;;;;;;5020780;28;20229;-72
2023/03/24 12:00:12;;;;;;;11.50;8.48;;;16.60;99.90;;;;;;5021213;28;20222;-74
2023/03/24 12:03:46;;;;;;;14.18;8.27;;;16.60;99.90;;;;;;5015800;28;20720;-74
2023/03/24 12:06:47;;;;;;;15.20;7.72;;;16.70;99.90;;;;;;5018581;28;20296;-73
2023/03/24 12:09:41;;;;;;;9.13;6.95;;;16.70;99.90;;;;;;5016281;28;20308;-77
2023/03/24 12:12:38;;;;;;;10.38;6.38;;;16.80;99.90;;;;;;5035422;28;20888;-76
2023/03/24 12:15:37;;;;;;;12.25;7.25;;;16.80;99.90;;;;;;5019726;28;20245;-76
2023/03/24 12:18:43;;;;;;;7.70;5.90;;;16.90;99.90;;;;;;5015725;28;20229;-76
2023/03/24 12:21:48;;;;;;;11.10;6.18;;;17.00;99.90;;;;;;5019111;28;20304;-73
2023/03/24 12:24:57;;;;;;;8.38;6.20;;;17.10;99.90;;;;;;5018076;28;20280;-74
2023/03/24 12:27:58;;;;;;;10.13;6.38;;;17.20;99.90;;;;;;5032168;28;20225;-74
2023/03/24 12:30:59;;;;;;;15.00;6.85;;;17.40;99.90;;;;;;5016902;28;20715;-78
2023/03/24 12:33:57;;;;;;;9.48;5.82;;;17.70;99.90;;;;;;5028301;28;20221;-79
2023/03/24 12:37:00;;;;;;;18.95;6.88;;;17.80;99.90;;;;;;5008704;28;20226;-73
2023/03/24 12:40:01;;;;;;;16.80;6.20;;;17.90;99.90;;;;;;5019479;28;20430;-77
2023/03/24 12:42:59;;;;;;;7.97;5.55;;;18.00;99.90;;;;;;5014498;28;20586;-76
2023/03/24 12:45:52;;;;;;;23.15;7.38;;;18.00;99.90;;;;;;5017221;28;20716;-81
2023/03/24 12:49:12;;;;;;;10.10;5.50;;;18.10;99.90;;;;;;5020727;28;20303;-82
2023/03/24 12:52:18;;;;;;;9.85;5.25;;;18.00;99.90;;;;;;5024369;28;20232;-83
2023/03/24 12:55:13;;;;;;;9.75;5.00;;;18.10;99.90;;;;;;5021148;28;20443;-82
2023/03/24 12:58:10;;;;;;;15.50;5.00;;;18.10;99.90;;;;;;4998155;28;20237;-79
2023/03/24 13:01:06;;;;;;;9.85;4.30;;;18.20;99.90;;;;;;5025685;28;20591;-80
2023/03/24 13:04:04;;;;;;;7.85;4.53;;;18.10;99.90;;;;;;5019259;28;20434;-79
2023/03/24 13:06:59;;;;;;;8.02;4.45;;;18.10;99.90;;;;;;5010829;28;20430;-80
2023/03/24 13:09:54;;;;;;;7.10;4.45;;;18.10;99.90;;;;;;5003723;28;20436;-80
2023/03/24 13:12:49;;;;;;;8.02;4.50;;;18.20;99.90;;;;;;5011323;28;20458;-84
2023/03/24 13:15:42;;;;;;;6.57;4.05;;;18.30;99.90;;;;;;5021720;28;20584;-79
2023/03/24 13:18:35;;;;;;;6.67;4.50;;;18.30;99.90;;;;;;5015786;28;20456;-79
2023/03/24 13:21:25;;;;;;;6.03;4.43;;;18.50;99.90;;;;;;5017704;28;20542;-77
2023/03/24 13:24:18;;;;;;;6.60;4.28;;;18.40;99.90;;;;;;5002940;28;20457;-78
2023/03/24 13:27:15;;;;;;;7.65;4.80;;;18.50;99.90;;;;;;5020829;28;20433;-80
2023/03/24 13:30:19;;;;;;;6.38;3.63;;;18.60;99.90;;;;;;5018779;28;20524;-81
2023/03/24 13:33:14;;;;;;;8.38;4.40;;;18.60;99.90;;;;;;5018438;28;20975;-81
2023/03/24 13:36:34;;;;;;;8.25;3.58;;;18.50;99.90;;;;;;5023875;28;20918;-81
2023/03/24 13:39:26;;;;;;;6.30;3.55;;;18.70;99.90;;;;;;5012393;28;20229;-79
2023/03/24 13:42:31;;;;;;;5.80;3.55;;;18.60;99.90;;;;;;5022067;28;20283;-78
2023/03/24 13:45:35;;;;;;;6.10;4.10;;;18.70;99.90;;;;;;5020828;28;20252;-78
2023/03/24 13:48:33;;;;;;;5.68;3.80;;;18.60;99.90;;;;;;5003859;28;20236;-81
2023/03/24 13:51:26;;;;;;;8.05;3.15;;;18.50;99.90;;;;;;5005920;28;20229;-78
2023/03/24 13:54:18;;;;;;;4.68;2.90;;;18.50;99.90;;;;;;5009551;28;20244;-77
2023/03/24 13:57:16;;;;;;;5.55;3.00;;;18.50;99.90;;;;;;5019780;28;20261;-80
2023/03/24 14:00:20;;;;;;;5.55;3.00;;;18.50;99.90;;;;;;5019173;28;20697;-79
2023/03/24 14:03:31;;;;;;;5.13;3.33;;;18.60;99.90;;;;;;5004016;28;20221;-78
2023/03/24 14:06:46;;;;;;;5.80;3.10;;;18.60;99.90;;;;;;5001176;28;20244;-79
2023/03/24 14:09:59;;;;;;;3.30;2.50;;;18.60;99.90;;;;;;5012702;28;20350;-79
2023/03/24 14:12:54;;;;;;;7.18;3.15;;;18.60;99.90;;;;;;5010500;28;20282;-79
2023/03/24 14:15:49;;;;;;;4.22;3.03;;;18.70;99.90;;;;;;5024155;28;20224;-79
2023/03/24 14:18:42;;;;;;;7.45;2.75;;;18.70;99.90;;;;;;5010605;28;20271;-80
2023/03/24 14:21:36;;;;;;;4.22;2.80;;;18.70;99.90;;;;;;5012436;28;20221;-79
2023/03/24 14:24:28;;;;;;;11.23;3.55;;;18.70;99.90;;;;;;5017831;28;20230;-82
2023/03/24 14:27:35;;;;;;;5.65;3.00;;;18.70;99.90;;;;;;5017997;28;20225;-77
2023/03/24 14:30:29;;;;;;;4.95;2.70;;;18.70;99.90;;;;;;5013932;28;20225;-80
2023/03/24 14:33:25;;;;;;;4.82;2.65;;;18.70;99.90;;;;;;5006018;28;20221;-79
2023/03/24 14:36:22;;;;;;;5.85;2.80;;;18.70;99.90;;;;;;4998751;28;20583;-79
2023/03/24 14:39:20;;;;;;;5.07;3.00;;;18.70;99.90;;;;;;5015950;28;20226;-77
2023/03/24 14:42:41;;;;;;;5.40;3.20;;;18.80;99.90;;;;;;5014174;28;20221;-81
2023/03/24 14:46:02;;;;;;;8.57;5.20;;;18.80;99.90;;;;;;5004033;28;20237;-80
2023/03/24 14:48:57;;;;;;;4.90;2.88;;;18.80;99.90;;;;;;5014578;28;20515;-79
2023/03/24 14:51:54;;;;;;;3.63;2.92;;;18.70;99.90;;;;;;5020232;28;20222;-80
2023/03/24 14:54:48;;;;;;;5.28;2.63;;;18.70;99.90;;;;;;5010478;28;20249;-78
2023/03/24 14:57:40;;;;;;;5.05;2.78;;;18.70;99.90;;;;;;5018302;28;20240;-77
2023/03/24 15:00:35;;;;;;;3.63;2.63;;;18.60;99.90;;;;;;4999755;28;20221;-79
2023/03/24 15:03:36;;;;;;;4.20;2.70;;;18.70;99.90;;;;;;5015631;28;20760;-79
2023/03/24 15:06:27;;;;;;;6.03;2.50;;;18.70;99.90;;;;;;5021192;28;20311;-79
2023/03/24 15:09:18;;;;;;;4.82;2.92;;;18.70;99.90;;;;;;5009284;28;20218;-80